sensor_id;sensor_type;location;lat;lon;timestamp;pressure;altitude;pressure_sealevel;temperature;humidity
56992;BME280;42885;49.754;18.636;2023-04-06T00:00:28;98630.52;;;1.46;78.10
56992;BME280;42885;49.754;18.636;2023-04-06T00:03:01;98630.14;;;1.42;77.67
56992;BME280;42885;49.754;18.636;2023-04-06T00:05:32;98621.89;;;1.47;77.98
56992;BME280;42885;49.754;18.636;2023-04-06T00:08:03;98625.22;;;1.52;78.44
56992;BME280;42885;49.754;18.636;2023-04-06T00:10:34;98625.22;;;1.52;78.44
56992;BME280;42885;49.754;18.636;2023-04-06T00:13:06;98626.61;;;1.21;79.30
56992;BME280;42885;49.754;18.636;2023-04-06T00:15:37;98625.00;;;1.40;78.71
56992;BME280;42885;49.754;18.636;2023-04-06T00:18:08;98626.75;;;1.40;78.14
56992;BME280;42885;49.754;18.636;2023-04-06T00:20:39;98625.88;;;1.39;77.80
56992;BME280;42885;49.754;18.636;2023-04-06T00:23:10;98630.86;;;1.26;77.43
56992;BME280;42885;49.754;18.636;2023-04-06T00:25:41;98625.05;;;1.13;77.30
56992;BME280;42885;49.754;18.636;2023-04-06T00:28:12;98623.61;;;1.22;77.23
56992;BME280;42885;49.754;18.636;2023-04-06T00:30:43;98620.15;;;1.23;77.42
56992;BME280;42885;49.754;18.636;2023-04-06T00:33:14;98621.30;;;1.03;77.36
56992;BME280;42885;49.754;18.636;2023-04-06T00:35:45;98616.13;;;1.06;78.60
56992;BME280;42885;49.754;18.636;2023-04-06T00:38:16;98614.50;;;1.01;78.54
56992;BME280;42885;49.754;18.636;2023-04-06T00:40:47;98613.73;;;0.94;78.68
56992;BME280;42885;49.754;18.636;2023-04-06T00:43:19;98614.45;;;1.02;78.90
56992;BME280;42885;49.754;18.636;2023-04-06T00:45:49;98623.93;;;1.02;79.15
56992;BME280;42885;49.754;18.636;2023-04-06T00:48:20;98614.13;;;0.95;77.68
56992;BME280;42885;49.754;18.636;2023-04-06T00:50:51;98607.00;;;0.85;78.27
56992;BME280;42885;49.754;18.636;2023-04-06T00:53:22;98608.05;;;0.73;80.25
56992;BME280;42885;49.754;18.636;2023-04-06T00:55:54;98611.50;;;0.72;79.98
56992;BME280;42885;49.754;18.636;2023-04-06T00:58:25;98609.26;;;0.78;80.38
56992;BME280;42885;49.754;18.636;2023-04-06T01:00:58;98609.91;;;0.62;80.85
56992;BME280;42885;49.754;18.636;2023-04-06T01:03:29;98609.87;;;0.66;80.48
56992;BME280;42885;49.754;18.636;2023-04-06T01:06:00;98610.76;;;0.64;81.03
56992;BME280;42885;49.754;18.636;2023-04-06T01:08:32;98610.76;;;0.64;81.98
56992;BME280;42885;49.754;18.636;2023-04-06T01:11:24;98614.95;;;0.71;81.93
56992;BME280;42885;49.754;18.636;2023-04-06T01:13:56;98613.69;;;0.68;81.65
56992;BME280;42885;49.754;18.636;2023-04-06T01:16:29;98609.02;;;0.93;81.71
56992;BME280;42885;49.754;18.636;2023-04-06T01:19:12;98607.90;;;0.82;80.53
56992;BME280;42885;49.754;18.636;2023-04-06T01:21:45;98603.87;;;0.34;83.20
56992;BME280;42885;49.754;18.636;2023-04-06T01:24:18;98598.77;;;0.31;83.21
56992;BME280;42885;49.754;18.636;2023-04-06T01:26:50;98605.61;;;0.33;84.10
56992;BME280;42885;49.754;18.636;2023-04-06T01:29:24;98604.56;;;0.45;83.81
56992;BME280;42885;49.754;18.636;2023-04-06T01:31:54;98605.36;;;0.50;84.53
56992;BME280;42885;49.754;18.636;2023-04-06T01:34:25;98613.41;;;0.27;85.11
56992;BME280;42885;49.754;18.636;2023-04-06T01:36:57;98608.22;;;0.29;85.30
56992;BME280;42885;49.754;18.636;2023-04-06T01:39:29;98602.36;;;0.17;84.92
56992;BME280;42885;49.754;18.636;2023-04-06T01:42:01;98610.83;;;0.27;84.88
56992;BME280;42885;49.754;18.636;2023-04-06T01:44:32;98596.62;;;0.30;85.27
56992;BME280;42885;49.754;18.636;2023-04-06T01:47:07;98603.94;;;0.27;85.51
56992;BME280;42885;49.754;18.636;2023-04-06T01:49:40;98599.54;;;0.36;85.43
56992;BME280;42885;49.754;18.636;2023-04-06T01:52:12;98597.95;;;0.27;83.98
56992;BME280;42885;49.754;18.636;2023-04-06T01:54:48;98602.31;;;0.20;85.20
56992;BME280;42885;49.754;18.636;2023-04-06T01:57:22;98606.58;;;0.23;84.30
56992;BME280;42885;49.754;18.636;2023-04-06T01:59:59;98605.41;;;0.13;83.97
56992;BME280;42885;49.754;18.636;2023-04-06T02:02:34;98603.59;;;0.22;84.88
56992;BME280;42885;49.754;18.636;2023-04-06T02:05:08;98603.19;;;0.19;85.23
56992;BME280;42885;49.754;18.636;2023-04-06T02:07:41;98600.59;;;0.22;84.20
56992;BME280;42885;49.754;18.636;2023-04-06T02:10:14;98605.35;;;0.18;83.95
56992;BME280;42885;49.754;18.636;2023-04-06T02:12:46;98606.23;;;0.17;84.49
56992;BME280;42885;49.754;18.636;2023-04-06T02:15:21;98605.00;;;0.12;85.58
56992;BME280;42885;49.754;18.636;2023-04-06T02:17:53;98608.09;;;0.06;85.93
56992;BME280;42885;49.754;18.636;2023-04-06T02:20:28;98604.88;;;-0.13;86.15
56992;BME280;42885;49.754;18.636;2023-04-06T02:23:01;98610.27;;;0.02;86.83
56992;BME280;42885;49.754;18.636;2023-04-06T02:25:33;98601.36;;;0.27;86.24
56992;BME280;42885;49.754;18.636;2023-04-06T02:28:05;98596.75;;;0.21;85.99
56992;BME280;42885;49.754;18.636;2023-04-06T02:30:36;98595.06;;;-0.17;86.30
56992;BME280;42885;49.754;18.636;2023-04-06T02:33:07;98597.48;;;-0.42;88.72
56992;BME280;42885;49.754;18.636;2023-04-06T02:35:44;98598.86;;;-0.11;89.03
56992;BME280;42885;49.754;18.636;2023-04-06T02:38:15;98602.20;;;-0.04;88.52
56992;BME280;42885;49.754;18.636;2023-04-06T02:40:47;98603.08;;;-0.05;88.07
56992;BME280;42885;49.754;18.636;2023-04-06T02:43:23;98605.58;;;0.01;88.51
56992;BME280;42885;49.754;18.636;2023-04-06T02:45:56;98601.13;;;0.14;88.31
56992;BME280;42885;49.754;18.636;2023-04-06T02:48:27;98602.66;;;0.27;88.88
56992;BME280;42885;49.754;18.636;2023-04-06T02:50:58;98610.30;;;0.34;88.78
56992;BME280;42885;49.754;18.636;2023-04-06T02:53:29;98603.57;;;0.25;88.44
56992;BME280;42885;49.754;18.636;2023-04-06T02:56:00;98608.98;;;0.03;88.37
56992;BME280;42885;49.754;18.636;2023-04-06T02:58:33;98609.50;;;-0.04;88.77
56992;BME280;42885;49.754;18.636;2023-04-06T03:01:04;98601.38;;;-0.08;90.33
56992;BME280;42885;49.754;18.636;2023-04-06T03:03:35;98608.63;;;-0.03;90.59
56992;BME280;42885;49.754;18.636;2023-04-06T03:06:07;98608.09;;;0.06;91.04
56992;BME280;42885;49.754;18.636;2023-04-06T03:08:38;98608.50;;;0.08;90.32
56992;BME280;42885;49.754;18.636;2023-04-06T03:11:09;98604.88;;;-0.13;89.51
56992;BME280;42885;49.754;18.636;2023-04-06T03:13:42;98601.14;;;-0.24;90.86
56992;BME280;42885;49.754;18.636;2023-04-06T03:16:13;98611.20;;;-0.03;90.03
56992;BME280;42885;49.754;18.636;2023-04-06T03:18:45;98602.62;;;-0.05;88.54
56992;BME280;42885;49.754;18.636;2023-04-06T03:21:16;98606.48;;;-0.05;89.54
56992;BME280;42885;49.754;18.636;2023-04-06T03:23:51;98608.28;;;-0.11;90.39
56992;BME280;42885;49.754;18.636;2023-04-06T03:26:22;98609.55;;;-0.08;89.90
56992;BME280;42885;49.754;18.636;2023-04-06T03:28:54;98610.55;;;-0.22;90.60
56992;BME280;42885;49.754;18.636;2023-04-06T03:31:28;98619.20;;;-0.29;89.58
56992;BME280;42885;49.754;18.636;2023-04-06T03:34:00;98614.48;;;-0.30;89.22
56992;BME280;42885;49.754;18.636;2023-04-06T03:36:34;98623.45;;;-0.25;89.00
56992;BME280;42885;49.754;18.636;2023-04-06T03:39:06;98618.34;;;-0.30;90.48
56992;BME280;42885;49.754;18.636;2023-04-06T03:41:39;98622.59;;;-0.25;90.29
56992;BME280;42885;49.754;18.636;2023-04-06T03:44:11;98626.92;;;-0.31;90.75
56992;BME280;42885;49.754;18.636;2023-04-06T03:46:42;98616.01;;;-0.53;91.48
56992;BME280;42885;49.754;18.636;2023-04-06T03:49:14;98620.69;;;-0.49;93.08
56992;BME280;42885;49.754;18.636;2023-04-06T03:51:46;98621.11;;;-0.48;91.83
56992;BME280;42885;49.754;18.636;2023-04-06T03:54:17;98620.64;;;-0.45;91.52
56992;BME280;42885;49.754;18.636;2023-04-06T03:56:48;98626.28;;;-0.50;92.66
56992;BME280;42885;49.754;18.636;2023-04-06T03:59:19;98618.06;;;-0.42;92.80
56992;BME280;42885;49.754;18.636;2023-04-06T04:01:50;98626.30;;;-0.54;91.38
56992;BME280;42885;49.754;18.636;2023-04-06T04:04:21;98627.71;;;-0.65;92.08
56992;BME280;42885;49.754;18.636;2023-04-06T04:06:52;98632.39;;;-0.63;92.21
56992;BME280;42885;49.754;18.636;2023-04-06T04:09:23;98630.19;;;-0.56;92.28
56992;BME280;42885;49.754;18.636;2023-04-06T04:11:54;98629.31;;;-0.53;92.18
56992;BME280;42885;49.754;18.636;2023-04-06T04:14:26;98635.30;;;-0.53;92.23
56992;BME280;42885;49.754;18.636;2023-04-06T04:16:57;98635.66;;;-0.47;93.13
56992;BME280;42885;49.754;18.636;2023-04-06T04:19:28;98635.70;;;-0.52;93.08
56992;BME280;42885;49.754;18.636;2023-04-06T04:21:59;98629.92;;;-0.74;90.78
56992;BME280;42885;49.754;18.636;2023-04-06T04:24:32;98644.47;;;-0.72;93.17
56992;BME280;42885;49.754;18.636;2023-04-06T04:27:04;98636.39;;;-0.80;93.16
56992;BME280;42885;49.754;18.636;2023-04-06T04:29:35;98637.58;;;-0.68;93.17
56992;BME280;42885;49.754;18.636;2023-04-06T04:32:08;98629.87;;;-0.71;92.85
56992;BME280;42885;49.754;18.636;2023-04-06T04:34:39;98643.50;;;-0.58;92.74
56992;BME280;42885;49.754;18.636;2023-04-06T04:37:12;98635.38;;;-0.61;92.09
56992;BME280;42885;49.754;18.636;2023-04-06T04:39:47;98642.09;;;-0.47;92.34
56992;BME280;42885;49.754;18.636;2023-04-06T04:42:19;98640.06;;;-0.59;92.05
56992;BME280;42885;49.754;18.636;2023-04-06T04:44:52;98642.59;;;-0.54;92.15
56992;BME280;42885;49.754;18.636;2023-04-06T04:47:25;98640.52;;;-0.61;93.00
56992;BME280;42885;49.754;18.636;2023-04-06T04:49:56;98640.94;;;-0.60;93.25
56992;BME280;42885;49.754;18.636;2023-04-06T04:52:30;98646.41;;;-0.51;93.75
56992;BME280;42885;49.754;18.636;2023-04-06T04:55:07;98636.22;;;-0.60;94.53
56992;BME280;42885;49.754;18.636;2023-04-06T04:57:38;98639.78;;;-0.75;93.71
56992;BME280;42885;49.754;18.636;2023-04-06T05:00:10;98639.65;;;-0.60;94.67
56992;BME280;42885;49.754;18.636;2023-04-06T05:02:42;98640.56;;;-0.65;94.72
56992;BME280;42885;49.754;18.636;2023-04-06T05:05:18;98645.29;;;-0.66;94.94
56992;BME280;42885;49.754;18.636;2023-04-06T05:07:51;98639.98;;;-0.51;95.06
56992;BME280;42885;49.754;18.636;2023-04-06T05:10:34;98640.80;;;-0.47;94.62
56992;BME280;42885;49.754;18.636;2023-04-06T05:13:05;98642.39;;;-0.32;95.48
56992;BME280;42885;49.754;18.636;2023-04-06T05:15:36;98649.20;;;-0.28;95.34
56992;BME280;42885;49.754;18.636;2023-04-06T05:18:12;98639.83;;;-0.32;94.23
56992;BME280;42885;49.754;18.636;2023-04-06T05:20:43;98645.23;;;-0.19;94.25
56992;BME280;42885;49.754;18.636;2023-04-06T05:23:15;98645.64;;;-0.15;93.11
56992;BME280;42885;49.754;18.636;2023-04-06T05:25:46;98649.34;;;-0.01;92.83
56992;BME280;42885;49.754;18.636;2023-04-06T05:28:22;98647.48;;;0.11;93.04
56992;BME280;42885;49.754;18.636;2023-04-06T05:30:53;98642.79;;;0.09;92.75
56992;BME280;42885;49.754;18.636;2023-04-06T05:33:25;98641.56;;;0.03;93.73
56992;BME280;42885;49.754;18.636;2023-04-06T05:36:06;98637.70;;;0.03;93.32
56992;BME280;42885;49.754;18.636;2023-04-06T05:38:39;98638.75;;;-0.14;92.74
56992;BME280;42885;49.754;18.636;2023-04-06T05:41:16;98639.80;;;0.09;92.43
56992;BME280;42885;49.754;18.636;2023-04-06T05:43:48;98633.70;;;0.17;92.78
56992;BME280;42885;49.754;18.636;2023-04-06T05:46:19;98631.70;;;0.39;92.57
56992;BME280;42885;49.754;18.636;2023-04-06T05:48:51;98624.31;;;0.46;91.98
56992;BME280;42885;49.754;18.636;2023-04-06T05:51:24;98633.88;;;0.68;90.92
56992;BME280;42885;49.754;18.636;2023-04-06T05:53:56;98631.36;;;0.93;89.77
56992;BME280;42885;49.754;18.636;2023-04-06T05:56:28;98627.63;;;0.85;89.35
56992;BME280;42885;49.754;18.636;2023-04-06T05:59:00;98625.16;;;1.05;89.92
56992;BME280;42885;49.754;18.636;2023-04-06T06:01:33;98628.07;;;1.10;89.84
56992;BME280;42885;49.754;18.636;2023-04-06T06:04:04;98636.61;;;1.40;88.48
56992;BME280;42885;49.754;18.636;2023-04-06T06:06:37;98624.49;;;1.45;87.71
56992;BME280;42885;49.754;18.636;2023-04-06T06:09:10;98617.62;;;1.69;86.77
56992;BME280;42885;49.754;18.636;2023-04-06T06:11:43;98620.61;;;1.47;88.42
56992;BME280;42885;49.754;18.636;2023-04-06T06:14:15;98622.55;;;1.58;87.82
56992;BME280;42885;49.754;18.636;2023-04-06T06:16:47;98619.05;;;1.62;87.48
56992;BME280;42885;49.754;18.636;2023-04-06T06:19:19;98617.28;;;1.64;86.17
56992;BME280;42885;49.754;18.636;2023-04-06T06:21:51;98616.55;;;2.02;85.29
56992;BME280;42885;49.754;18.636;2023-04-06T06:24:22;98613.11;;;2.24;82.96
56992;BME280;42885;49.754;18.636;2023-04-06T06:26:54;98606.07;;;2.51;81.33
56992;BME280;42885;49.754;18.636;2023-04-06T06:29:26;98608.48;;;2.78;79.49
56992;BME280;42885;49.754;18.636;2023-04-06T06:31:58;98613.41;;;2.89;78.28
56992;BME280;42885;49.754;18.636;2023-04-06T06:34:29;98606.63;;;3.01;77.72
56992;BME280;42885;49.754;18.636;2023-04-06T06:37:02;98608.41;;;3.18;76.58
56992;BME280;42885;49.754;18.636;2023-04-06T06:39:35;98608.53;;;3.13;76.24
56992;BME280;42885;49.754;18.636;2023-04-06T06:42:06;98611.33;;;3.38;75.96
56992;BME280;42885;49.754;18.636;2023-04-06T06:44:48;98609.73;;;3.67;74.98
56992;BME280;42885;49.754;18.636;2023-04-06T06:47:20;98611.30;;;3.73;73.83
56992;BME280;42885;49.754;18.636;2023-04-06T06:49:51;98606.42;;;3.27;74.53
56992;BME280;42885;49.754;18.636;2023-04-06T06:52:23;98612.59;;;3.73;75.36
56992;BME280;42885;49.754;18.636;2023-04-06T06:54:54;98605.24;;;4.21;72.15
56992;BME280;42885;49.754;18.636;2023-04-06T06:57:26;98607.95;;;4.31;71.40
56992;BME280;42885;49.754;18.636;2023-04-06T06:59:57;98610.49;;;4.03;72.98
56992;BME280;42885;49.754;18.636;2023-04-06T07:02:31;98602.22;;;4.50;71.47
56992;BME280;42885;49.754;18.636;2023-04-06T07:05:02;98601.70;;;4.38;70.29
56992;BME280;42885;49.754;18.636;2023-04-06T07:07:34;98601.72;;;4.52;70.02
56992;BME280;42885;49.754;18.636;2023-04-06T07:10:05;98602.22;;;4.65;68.30
56992;BME280;42885;49.754;18.636;2023-04-06T07:12:38;98603.98;;;4.78;66.23
56992;BME280;42885;49.754;18.636;2023-04-06T07:15:09;98604.23;;;5.24;64.98
56992;BME280;42885;49.754;18.636;2023-04-06T07:17:41;98601.48;;;5.79;60.54
56992;BME280;42885;49.754;18.636;2023-04-06T07:20:14;98606.09;;;5.71;57.76
56992;BME280;42885;49.754;18.636;2023-04-06T07:22:45;98611.89;;;5.66;57.89
56992;BME280;42885;49.754;18.636;2023-04-06T07:25:19;98607.17;;;5.65;56.54
56992;BME280;42885;49.754;18.636;2023-04-06T07:27:50;98609.43;;;5.49;55.37
56992;BME280;42885;49.754;18.636;2023-04-06T07:30:22;98607.13;;;5.91;54.78
56992;BME280;42885;49.754;18.636;2023-04-06T07:32:55;98606.55;;;5.83;55.54
56992;BME280;42885;49.754;18.636;2023-04-06T07:35:27;98614.73;;;5.46;54.85
56992;BME280;42885;49.754;18.636;2023-04-06T07:38:00;98614.27;;;5.21;55.69
56992;BME280;42885;49.754;18.636;2023-04-06T07:40:31;98622.72;;;5.27;56.17
56992;BME280;42885;49.754;18.636;2023-04-06T07:43:02;98618.54;;;5.09;55.40
56992;BME280;42885;49.754;18.636;2023-04-06T07:45:34;98618.34;;;5.15;55.23
56992;BME280;42885;49.754;18.636;2023-04-06T07:48:05;98613.34;;;5.09;55.35
56992;BME280;42885;49.754;18.636;2023-04-06T07:50:37;98616.45;;;5.07;56.56
56992;BME280;42885;49.754;18.636;2023-04-06T07:53:09;98618.52;;;5.49;55.14
56992;BME280;42885;49.754;18.636;2023-04-06T07:55:40;98614.81;;;5.82;55.29
56992;BME280;42885;49.754;18.636;2023-04-06T07:58:11;98619.15;;;5.82;55.68
56992;BME280;42885;49.754;18.636;2023-04-06T08:00:42;98617.95;;;5.67;54.99
56992;BME280;42885;49.754;18.636;2023-04-06T08:03:13;98619.41;;;5.62;55.92
56992;BME280;42885;49.754;18.636;2023-04-06T08:05:46;98621.05;;;5.76;54.70
56992;BME280;42885;49.754;18.636;2023-04-06T08:08:17;98613.35;;;5.87;52.96
56992;BME280;42885;49.754;18.636;2023-04-06T08:10:50;98614.11;;;6.26;52.30
56992;BME280;42885;49.754;18.636;2023-04-06T08:13:21;98617.52;;;6.40;51.50
56992;BME280;42885;49.754;18.636;2023-04-06T08:15:52;98607.57;;;6.62;50.69
56992;BME280;42885;49.754;18.636;2023-04-06T08:18:24;98614.38;;;6.54;49.47
56992;BME280;42885;49.754;18.636;2023-04-06T08:20:55;98617.59;;;6.83;50.27
56992;BME280;42885;49.754;18.636;2023-04-06T08:23:27;98612.89;;;7.03;49.44
56992;BME280;42885;49.754;18.636;2023-04-06T08:25:58;98609.12;;;7.00;47.96
56992;BME280;42885;49.754;18.636;2023-04-06T08:28:29;98606.89;;;7.44;48.04
56992;BME280;42885;49.754;18.636;2023-04-06T08:31:05;98610.80;;;7.44;47.58
56992;BME280;42885;49.754;18.636;2023-04-06T08:33:36;98610.22;;;7.48;46.81
56992;BME280;42885;49.754;18.636;2023-04-06T08:36:14;98603.64;;;7.60;46.45
56992;BME280;42885;49.754;18.636;2023-04-06T08:38:46;98609.94;;;7.75;45.20
56992;BME280;42885;49.754;18.636;2023-04-06T08:41:18;98607.92;;;7.20;45.73
56992;BME280;42885;49.754;18.636;2023-04-06T08:43:56;98596.34;;;7.48;45.74
56992;BME280;42885;49.754;18.636;2023-04-06T08:46:29;98597.45;;;7.92;44.73
56992;BME280;42885;49.754;18.636;2023-04-06T08:49:02;98594.89;;;8.31;43.67
56992;BME280;42885;49.754;18.636;2023-04-06T08:51:36;98599.28;;;8.30;43.68
56992;BME280;42885;49.754;18.636;2023-04-06T08:54:08;98594.78;;;8.23;43.26
56992;BME280;42885;49.754;18.636;2023-04-06T08:56:39;98597.84;;;7.64;43.73
56992;BME280;42885;49.754;18.636;2023-04-06T08:59:11;98597.50;;;7.51;44.10
56992;BME280;42885;49.754;18.636;2023-04-06T09:01:43;98599.00;;;7.46;44.25
56992;BME280;42885;49.754;18.636;2023-04-06T09:04:15;98583.42;;;7.86;43.39
56992;BME280;42885;49.754;18.636;2023-04-06T09:06:47;98591.35;;;7.83;43.65
56992;BME280;42885;49.754;18.636;2023-04-06T09:09:19;98587.80;;;7.75;44.59
56992;BME280;42885;49.754;18.636;2023-04-06T09:11:51;98590.44;;;7.84;44.42
56992;BME280;42885;49.754;18.636;2023-04-06T09:14:35;98580.38;;;7.45;43.75
56992;BME280;42885;49.754;18.636;2023-04-06T09:17:07;98591.78;;;7.63;43.65
56992;BME280;42885;49.754;18.636;2023-04-06T09:19:47;98587.03;;;7.42;43.45
56992;BME280;42885;49.754;18.636;2023-04-06T09:22:19;98585.63;;;7.75;43.69
56992;BME280;42885;49.754;18.636;2023-04-06T09:24:52;98580.33;;;8.16;43.28
56992;BME280;42885;49.754;18.636;2023-04-06T09:27:34;98575.87;;;8.29;42.31
56992;BME280;42885;49.754;18.636;2023-04-06T09:30:08;98572.30;;;8.40;42.43
56992;BME280;42885;49.754;18.636;2023-04-06T09:32:49;98577.52;;;8.40;41.87
56992;BME280;42885;49.754;18.636;2023-04-06T09:35:21;98573.05;;;8.14;42.53
56992;BME280;42885;49.754;18.636;2023-04-06T09:37:52;98568.97;;;8.75;41.89
56992;BME280;42885;49.754;18.636;2023-04-06T09:40:25;98562.58;;;8.24;41.53
56992;BME280;42885;49.754;18.636;2023-04-06T09:42:59;98562.89;;;8.46;41.47
56992;BME280;42885;49.754;18.636;2023-04-06T09:45:32;98559.64;;;8.51;41.87
56992;BME280;42885;49.754;18.636;2023-04-06T09:48:03;98561.65;;;8.55;42.17
56992;BME280;42885;49.754;18.636;2023-04-06T09:50:35;98566.20;;;8.69;41.65
56992;BME280;42885;49.754;18.636;2023-04-06T09:53:08;98563.27;;;8.47;41.33
56992;BME280;42885;49.754;18.636;2023-04-06T09:55:42;98558.53;;;8.47;41.27
56992;BME280;42885;49.754;18.636;2023-04-06T09:58:14;98559.42;;;8.65;41.27
56992;BME280;42885;49.754;18.636;2023-04-06T10:01:10;98550.53;;;9.57;41.88
56992;BME280;42885;49.754;18.636;2023-04-06T10:06:24;98543.16;;;8.68;40.91
56992;BME280;42885;49.754;18.636;2023-04-06T10:08:56;98543.88;;;9.85;41.64
56992;BME280;42885;49.754;18.636;2023-04-06T10:11:28;98546.95;;;9.42;40.03
56992;BME280;42885;49.754;18.636;2023-04-06T10:14:00;98541.48;;;9.47;39.21
56992;BME280;42885;49.754;18.636;2023-04-06T10:16:31;98544.44;;;9.32;39.21
56992;BME280;42885;49.754;18.636;2023-04-06T10:19:14;98540.37;;;9.00;39.45
56992;BME280;42885;49.754;18.636;2023-04-06T10:21:48;98543.59;;;9.14;40.11
56992;BME280;42885;49.754;18.636;2023-04-06T10:24:20;98526.88;;;9.52;39.19
56992;BME280;42885;49.754;18.636;2023-04-06T10:27:02;98534.08;;;9.21;39.33
56992;BME280;42885;49.754;18.636;2023-04-06T10:29:47;98533.84;;;9.00;39.54
56992;BME280;42885;49.754;18.636;2023-04-06T10:32:31;98527.16;;;9.38;39.68
56992;BME280;42885;49.754;18.636;2023-04-06T10:35:04;98532.03;;;9.53;39.32
56992;BME280;42885;49.754;18.636;2023-04-06T10:37:29;98515.30;;;9.48;40.07
56992;BME280;42885;49.754;18.636;2023-04-06T10:40:01;98523.91;;;9.24;39.69
56992;BME280;42885;49.754;18.636;2023-04-06T16:14:09;98454.61;;;5.83;90.73
56992;BME280;42885;49.754;18.636;2023-04-06T16:16:40;98459.84;;;5.93;91.37
56992;BME280;42885;49.754;18.636;2023-04-06T16:19:12;98452.19;;;6.02;92.83
56992;BME280;42885;49.754;18.636;2023-04-06T16:21:44;98454.96;;;5.73;93.24
56992;BME280;42885;49.754;18.636;2023-04-06T16:24:15;98454.63;;;5.47;95.87
56992;BME280;42885;49.754;18.636;2023-04-06T16:26:46;98456.16;;;5.29;97.81
56992;BME280;42885;49.754;18.636;2023-04-06T16:29:18;98450.45;;;5.43;99.78
56992;BME280;42885;49.754;18.636;2023-04-06T16:31:49;98453.79;;;5.70;99.72
56992;BME280;42885;49.754;18.636;2023-04-06T16:34:20;98454.19;;;5.47;100.00
56992;BME280;42885;49.754;18.636;2023-04-06T16:36:52;98460.20;;;5.12;100.00
56992;BME280;42885;49.754;18.636;2023-04-06T16:39:22;98461.37;;;5.15;100.00
56992;BME280;42885;49.754;18.636;2023-04-06T16:41:55;98462.13;;;5.31;100.00
56992;BME280;42885;49.754;18.636;2023-04-06T16:44:27;98456.73;;;5.37;100.00
56992;BME280;42885;49.754;18.636;2023-04-06T16:46:59;98460.23;;;5.36;100.00
56992;BME280;42885;49.754;18.636;2023-04-06T16:49:30;98459.50;;;5.44;100.00
56992;BME280;42885;49.754;18.636;2023-04-06T16:52:01;98454.43;;;5.04;100.00
56992;BME280;42885;49.754;18.636;2023-04-06T16:54:35;98457.13;;;5.13;100.00
56992;BME280;42885;49.754;18.636;2023-04-06T16:57:06;98452.43;;;5.24;100.00
56992;BME280;42885;49.754;18.636;2023-04-06T16:59:37;98458.81;;;5.63;100.00
56992;BME280;42885;49.754;18.636;2023-04-06T17:02:09;98456.21;;;5.39;100.00
56992;BME280;42885;49.754;18.636;2023-04-06T17:04:40;98451.14;;;5.36;100.00
56992;BME280;42885;49.754;18.636;2023-04-06T17:07:12;98446.65;;;5.04;100.00
56992;BME280;42885;49.754;18.636;2023-04-06T17:09:43;98454.64;;;4.98;100.00
56992;BME280;42885;49.754;18.636;2023-04-06T17:12:15;98456.67;;;5.01;100.00
56992;BME280;42885;49.754;18.636;2023-04-06T17:14:46;98451.69;;;4.95;100.00
56992;BME280;42885;49.754;18.636;2023-04-06T17:17:21;98447.48;;;5.04;100.00
56992;BME280;42885;49.754;18.636;2023-04-06T17:20:11;98451.84;;;5.04;100.00
56992;BME280;42885;49.754;18.636;2023-04-06T17:22:57;98457.73;;;4.95;100.00
56992;BME280;42885;49.754;18.636;2023-04-06T17:25:29;98461.13;;;4.84;100.00
56992;BME280;42885;49.754;18.636;2023-04-06T17:28:00;98460.26;;;4.97;100.00
56992;BME280;42885;49.754;18.636;2023-04-06T17:30:31;98463.06;;;5.16;100.00
56992;BME280;42885;49.754;18.636;2023-04-06T17:33:03;98464.09;;;5.12;100.00
56992;BME280;42885;49.754;18.636;2023-04-06T17:35:45;98461.97;;;5.10;100.00
56992;BME280;42885;49.754;18.636;2023-04-06T17:38:16;98465.57;;;5.19;100.00
56992;BME280;42885;49.754;18.636;2023-04-06T17:40:54;98474.34;;;5.15;100.00
56992;BME280;42885;49.754;18.636;2023-04-06T17:43:26;98462.98;;;5.19;100.00
56992;BME280;42885;49.754;18.636;2023-04-06T17:46:06;98464.80;;;5.04;100.00
56992;BME280;42885;49.754;18.636;2023-04-06T17:48:38;98466.08;;;4.92;100.00
56992;BME280;42885;49.754;18.636;2023-04-06T17:51:14;98467.69;;;4.82;100.00
56992;BME280;42885;49.754;18.636;2023-04-06T17:53:49;98471.23;;;4.66;100.00
56992;BME280;42885;49.754;18.636;2023-04-06T17:56:21;98473.38;;;5.06;100.00
56992;BME280;42885;49.754;18.636;2023-04-06T17:58:54;98470.84;;;5.16;100.00
56992;BME280;42885;49.754;18.636;2023-04-06T18:01:27;98473.01;;;5.17;100.00
56992;BME280;42885;49.754;18.636;2023-04-06T18:03:59;98474.92;;;5.23;100.00
56992;BME280;42885;49.754;18.636;2023-04-06T18:06:30;98474.02;;;5.24;100.00
56992;BME280;42885;49.754;18.636;2023-04-06T18:09:03;98477.27;;;5.06;100.00
56992;BME280;42885;49.754;18.636;2023-04-06T18:11:34;98470.64;;;5.22;100.00
56992;BME280;42885;49.754;18.636;2023-04-06T18:14:07;98469.28;;;5.12;100.00
56992;BME280;42885;49.754;18.636;2023-04-06T18:16:40;98474.03;;;5.36;100.00
56992;BME280;42885;49.754;18.636;2023-04-06T18:19:13;98473.86;;;5.29;100.00
56992;BME280;42885;49.754;18.636;2023-04-06T18:21:45;98476.12;;;5.38;100.00
56992;BME280;42885;49.754;18.636;2023-04-06T18:24:16;98477.70;;;5.31;100.00
56992;BME280;42885;49.754;18.636;2023-04-06T18:26:47;98475.80;;;5.36;100.00
56992;BME280;42885;49.754;18.636;2023-04-06T18:29:19;98478.38;;;5.24;100.00
56992;BME280;42885;49.754;18.636;2023-04-06T18:31:50;98475.09;;;5.19;100.00
56992;BME280;42885;49.754;18.636;2023-04-06T18:34:22;98474.48;;;5.24;100.00
56992;BME280;42885;49.754;18.636;2023-04-06T18:36:53;98474.95;;;5.10;100.00
56992;BME280;42885;49.754;18.636;2023-04-06T18:39:25;98482.27;;;4.99;100.00
56992;BME280;42885;49.754;18.636;2023-04-06T18:41:56;98477.73;;;5.17;100.00
56992;BME280;42885;49.754;18.636;2023-04-06T18:44:28;98488.97;;;5.18;100.00
56992;BME280;42885;49.754;18.636;2023-04-06T18:47:03;98478.08;;;5.20;100.00
56992;BME280;42885;49.754;18.636;2023-04-06T18:49:34;98472.14;;;5.16;100.00
56992;BME280;42885;49.754;18.636;2023-04-06T18:52:06;98481.11;;;5.07;100.00
56992;BME280;42885;49.754;18.636;2023-04-06T18:54:37;98482.30;;;5.10;100.00
56992;BME280;42885;49.754;18.636;2023-04-06T18:57:23;98484.70;;;5.29;100.00